Aérodrome :
LOGIN :

S'inscrire | Disclaimer

   EN    FR    IT 

 










Légende :    VFR   VFR Marginal   IFR   IFR Intensif   IFR Très Intensif
Visi : 
Plafond : 
>= 8 km
>= 3000ft
5 à 8 km
1000 à 3000 ft
1500m à 5 km
500 à 1000 ft
800 à 1500m
200 à 500 ft
< 800m
< 200 ft
Symboles :   Orages  Brouillard  Fortes neiges  Fortes précipitations  Vent > 20 kt
SIGMETs :   Divers  Orages  Givrage  Turbulence  Onde Orograph.  Cendres Volcan.






- Altitude de l'aérodrome : 74 ft
- Code IATA : EIN


EHEH - Eindhoven

DERNIER METAR :
  • 291225Z AUTO 19011KT 150V220 9999 -RA OVC014 10/07 Q1009 RERA REDZ GRN TEMPO 4000 -DZRA SCT007 BKN009 OVC011

METARs EXPIRÉS :
  • 291207Z AUTO 19009KT 150V220 9999 DZ FEW012 OVC015 10/07 Q1009 WHT TEMPO 4000 -DZRA SCT007 BKN009 OVC011
  • 291155Z AUTO 19011KT 9999 -RA OVC014 10/07 Q1009 GRN TEMPO 4000 -DZRA SCT007 BKN009 OVC011
  • 291143Z AUTO 18013KT 170V230 9999 OVC015 10/07 Q1009 WHT TEMPO 4000 -DZRA SCT007 BKN009 OVC011
  • 291129Z AUTO 18010KT 9999 OVC015 10/07 Q1009 WHT TEMPO 4000 -DZRA SCT007 BKN009 OVC011
  • 291114Z AUTO 18011KT 160V220 9999 SCT013 OVC015 10/06 Q1010 GRN TEMPO 4000 -DZRA SCT007 BKN009 OVC011
  • 291106Z AUTO 18011KT 160V230 9999 FEW012 OVC015 10/06 Q1010 WHT TEMPO 4000 -DZRA SCT007 BKN009 OVC011
  • 291055Z AUTO 19009KT 160V230 9999 FEW010 OVC013 10/06 Q1010 GRN TEMPO 4000 -DZRA SCT007 BKN009 OVC011
  • 291025Z AUTO 19010KT 160V220 9999 OVC013 10/06 Q1010 GRN TEMPO 4000 -DZRA SCT007 BKN009 OVC011
  • 290955Z AUTO 19011KT 160V230 9999 OVC013 09/06 Q1010 GRN TEMPO 4000 -DZRA SCT007 BKN009 OVC011
  • 290925Z AUTO 19010KT 150V220 9999 BKN013 OVC015 09/06 Q1010 GRN TEMPO 4000 -DZRA SCT007 BKN009 OVC011
  • 290855Z AUTO 18010KT 150V220 9999 OVC014 09/05 Q1011 GRN TEMPO 4000 -DZRA SCT007 BKN009 OVC011
  • 290825Z AUTO 18010KT 9999 BKN013 OVC016 08/05 Q1011 GRN TEMPO DZRA SCT009 OVC011
  • 290816Z AUTO 18010KT 160V220 9999 FEW010 SCT014 OVC016 08/05 Q1011 GRN TEMPO DZRA SCT009 OVC011
  • 290808Z AUTO 19010KT 160V220 9999 SCT014 SCT017 BKN021 08/05 Q1011 GRN TEMPO DZRA SCT009 OVC011
  • 290755Z AUTO 18009KT 9999 BKN017 BKN024 OVC027 08/05 Q1011 WHT TEMPO DZRA SCT009 OVC011
  • 290743Z AUTO 18009KT 150V210 9999 FEW016 SCT024 OVC028 08/05 Q1011 WHT TEMPO DZRA SCT009 OVC011

TAF TAF EHEH
Valide du 29 à 12h jusqu'au 01 à 18h UTC


291136Z 2912/0118 19010KT 9999 BKN015 OVC020
PROB40
TEMPO 2912/2920 4500 DZRA SCT007 BKN009
TEMPO 2916/2924 SCT030 BKN040
BECMG 2923/0101 SCT015 OVC020
TEMPO 0101/0104 24008KT 4500 RA SCT008 BKN015 OVC018
BECMG 0103/0105 FEW015 SCT020
PROB40 0110/0114 19015G25KT



MET'MAP, la Météo Aéronautique d'un coup d'oeil ! - Copyright ORBIFLY Décembre 2007 - Disclaimer

ORBIFLY MET'MAP TEAM :

Programmation & Développement : Alexandra Zaïnal
Sur une idée originale de : Baudouin d'Aumeries
Soutien technique & logistique : Manuel Goepfert
Assistance : Marc-Olivier Méhu




SOURCES & CREDITS :

   NOAA